sensor_id;sensor_type;location;lat;lon;timestamp;temperature;humidity
3944;DHT22;1986;52.546;13.428;2023-04-07T00:01:49;4.50;97.60
3944;DHT22;1986;52.546;13.428;2023-04-07T00:04:16;4.50;98.00
3944;DHT22;1986;52.546;13.428;2023-04-07T00:06:43;4.50;98.60
3944;DHT22;1986;52.546;13.428;2023-04-07T00:09:12;4.40;98.80
3944;DHT22;1986;52.546;13.428;2023-04-07T00:11:38;4.30;99.20
3944;DHT22;1986;52.546;13.428;2023-04-07T00:14:06;4.20;99.70
3944;DHT22;1986;52.546;13.428;2023-04-07T00:16:33;4.10;99.90
3944;DHT22;1986;52.546;13.428;2023-04-07T00:19:00;4.00;99.90
3944;DHT22;1986;52.546;13.428;2023-04-07T00:21:26;3.90;99.90
3944;DHT22;1986;52.546;13.428;2023-04-07T00:23:53;3.80;99.90
3944;DHT22;1986;52.546;13.428;2023-04-07T00:26:22;3.80;99.90
3944;DHT22;1986;52.546;13.428;2023-04-07T00:28:51;3.90;99.90
3944;DHT22;1986;52.546;13.428;2023-04-07T00:31:18;3.90;99.90
3944;DHT22;1986;52.546;13.428;2023-04-07T00:33:45;3.80;99.90
3944;DHT22;1986;52.546;13.428;2023-04-07T00:36:14;3.90;99.90
3944;DHT22;1986;52.546;13.428;2023-04-07T00:38:41;3.90;99.90
3944;DHT22;1986;52.546;13.428;2023-04-07T00:41:08;3.90;99.90
3944;DHT22;1986;52.546;13.428;2023-04-07T00:43:36;3.90;99.90
3944;DHT22;1986;52.546;13.428;2023-04-07T00:46:03;3.90;99.90
3944;DHT22;1986;52.546;13.428;2023-04-07T00:48:30;3.90;99.90
3944;DHT22;1986;52.546;13.428;2023-04-07T00:50:57;3.80;99.90
3944;DHT22;1986;52.546;13.428;2023-04-07T00:53:24;3.70;99.90
3944;DHT22;1986;52.546;13.428;2023-04-07T00:55:51;3.70;99.90
3944;DHT22;1986;52.546;13.428;2023-04-07T00:58:18;3.70;99.90
3944;DHT22;1986;52.546;13.428;2023-04-07T01:00:48;3.70;99.90
3944;DHT22;1986;52.546;13.428;2023-04-07T01:03:19;3.70;99.90
3944;DHT22;1986;52.546;13.428;2023-04-07T01:05:53;3.70;99.90
3944;DHT22;1986;52.546;13.428;2023-04-07T01:08:28;3.70;99.90
3944;DHT22;1986;52.546;13.428;2023-04-07T01:11:02;3.70;99.90
3944;DHT22;1986;52.546;13.428;2023-04-07T01:13:35;3.70;99.90
3944;DHT22;1986;52.546;13.428;2023-04-07T01:16:11;3.60;99.90
3944;DHT22;1986;52.546;13.428;2023-04-07T01:18:39;3.60;99.90
3944;DHT22;1986;52.546;13.428;2023-04-07T01:21:10;3.50;99.90
3944;DHT22;1986;52.546;13.428;2023-04-07T01:23:51;3.50;99.90
3944;DHT22;1986;52.546;13.428;2023-04-07T01:26:25;3.50;99.90
3944;DHT22;1986;52.546;13.428;2023-04-07T01:29:20;3.40;99.90
3944;DHT22;1986;52.546;13.428;2023-04-07T01:31:49;3.40;99.90
3944;DHT22;1986;52.546;13.428;2023-04-07T01:34:17;3.40;99.90
3944;DHT22;1986;52.546;13.428;2023-04-07T01:36:44;3.30;99.90
3944;DHT22;1986;52.546;13.428;2023-04-07T01:39:12;3.30;99.90
3944;DHT22;1986;52.546;13.428;2023-04-07T01:41:40;3.30;99.90
3944;DHT22;1986;52.546;13.428;2023-04-07T01:44:08;3.30;99.90
3944;DHT22;1986;52.546;13.428;2023-04-07T01:46:36;3.20;99.90
3944;DHT22;1986;52.546;13.428;2023-04-07T01:49:04;3.20;99.90
3944;DHT22;1986;52.546;13.428;2023-04-07T01:51:31;3.20;99.90
3944;DHT22;1986;52.546;13.428;2023-04-07T01:54:01;3.20;99.90
3944;DHT22;1986;52.546;13.428;2023-04-07T01:56:28;3.10;99.90
3944;DHT22;1986;52.546;13.428;2023-04-07T01:58:55;3.10;99.90
3944;DHT22;1986;52.546;13.428;2023-04-07T02:01:22;3.00;99.90
3944;DHT22;1986;52.546;13.428;2023-04-07T02:03:55;3.00;99.90
3944;DHT22;1986;52.546;13.428;2023-04-07T02:06:26;2.90;99.90
3944;DHT22;1986;52.546;13.428;2023-04-07T02:08:58;2.80;99.90
3944;DHT22;1986;52.546;13.428;2023-04-07T02:11:26;2.80;99.90
3944;DHT22;1986;52.546;13.428;2023-04-07T02:13:53;2.80;99.90
3944;DHT22;1986;52.546;13.428;2023-04-07T02:16:21;2.70;99.90
3944;DHT22;1986;52.546;13.428;2023-04-07T02:18:50;2.80;99.90
3944;DHT22;1986;52.546;13.428;2023-04-07T02:21:18;2.70;99.90
3944;DHT22;1986;52.546;13.428;2023-04-07T02:23:47;2.70;99.90
3944;DHT22;1986;52.546;13.428;2023-04-07T02:26:14;2.70;99.90
3944;DHT22;1986;52.546;13.428;2023-04-07T02:28:44;2.70;99.90
3944;DHT22;1986;52.546;13.428;2023-04-07T02:31:10;2.70;99.90
3944;DHT22;1986;52.546;13.428;2023-04-07T02:33:38;2.70;99.90
3944;DHT22;1986;52.546;13.428;2023-04-07T02:36:06;2.70;99.90
3944;DHT22;1986;52.546;13.428;2023-04-07T02:38:33;2.70;99.90
3944;DHT22;1986;52.546;13.428;2023-04-07T02:41:00;2.70;99.90
3944;DHT22;1986;52.546;13.428;2023-04-07T02:43:27;2.70;99.90
3944;DHT22;1986;52.546;13.428;2023-04-07T02:45:54;2.70;99.90
3944;DHT22;1986;52.546;13.428;2023-04-07T02:48:21;2.70;99.90
3944;DHT22;1986;52.546;13.428;2023-04-07T02:50:48;2.70;99.90
3944;DHT22;1986;52.546;13.428;2023-04-07T02:53:16;2.70;99.90
3944;DHT22;1986;52.546;13.428;2023-04-07T02:55:44;2.60;99.90
3944;DHT22;1986;52.546;13.428;2023-04-07T02:58:11;2.60;99.90
3944;DHT22;1986;52.546;13.428;2023-04-07T03:00:38;2.60;99.90
3944;DHT22;1986;52.546;13.428;2023-04-07T03:03:05;2.50;99.90
3944;DHT22;1986;52.546;13.428;2023-04-07T03:05:32;2.50;99.90
3944;DHT22;1986;52.546;13.428;2023-04-07T03:07:59;2.50;99.90
3944;DHT22;1986;52.546;13.428;2023-04-07T03:10:27;2.50;99.90
3944;DHT22;1986;52.546;13.428;2023-04-07T03:12:56;2.40;99.90
3944;DHT22;1986;52.546;13.428;2023-04-07T03:15:28;2.40;99.90
3944;DHT22;1986;52.546;13.428;2023-04-07T03:17:55;2.40;99.90
3944;DHT22;1986;52.546;13.428;2023-04-07T03:20:22;2.40;99.90
3944;DHT22;1986;52.546;13.428;2023-04-07T03:22:49;2.40;99.90
3944;DHT22;1986;52.546;13.428;2023-04-07T03:25:19;2.40;99.90
3944;DHT22;1986;52.546;13.428;2023-04-07T03:27:47;2.40;99.90
3944;DHT22;1986;52.546;13.428;2023-04-07T03:30:14;2.40;99.90
3944;DHT22;1986;52.546;13.428;2023-04-07T03:32:41;2.40;99.90
3944;DHT22;1986;52.546;13.428;2023-04-07T03:35:08;2.40;99.90
3944;DHT22;1986;52.546;13.428;2023-04-07T03:37:35;2.40;99.90
3944;DHT22;1986;52.546;13.428;2023-04-07T03:40:03;2.30;99.90
3944;DHT22;1986;52.546;13.428;2023-04-07T03:42:30;2.30;99.90
3944;DHT22;1986;52.546;13.428;2023-04-07T03:44:58;2.40;99.90
3944;DHT22;1986;52.546;13.428;2023-04-07T03:47:25;2.30;99.90
3944;DHT22;1986;52.546;13.428;2023-04-07T03:49:52;2.30;99.90
3944;DHT22;1986;52.546;13.428;2023-04-07T03:52:18;2.30;99.90
3944;DHT22;1986;52.546;13.428;2023-04-07T03:54:45;2.20;99.90
3944;DHT22;1986;52.546;13.428;2023-04-07T03:57:12;2.20;99.90
3944;DHT22;1986;52.546;13.428;2023-04-07T03:59:39;2.20;99.90
3944;DHT22;1986;52.546;13.428;2023-04-07T04:02:08;2.20;99.90
3944;DHT22;1986;52.546;13.428;2023-04-07T04:04:35;2.20;99.90
3944;DHT22;1986;52.546;13.428;2023-04-07T04:07:02;2.10;99.90
3944;DHT22;1986;52.546;13.428;2023-04-07T04:09:29;2.10;99.90
3944;DHT22;1986;52.546;13.428;2023-04-07T04:11:56;2.00;99.90
3944;DHT22;1986;52.546;13.428;2023-04-07T04:14:23;2.00;99.90
3944;DHT22;1986;52.546;13.428;2023-04-07T04:16:49;2.00;99.90
3944;DHT22;1986;52.546;13.428;2023-04-07T04:19:18;1.90;99.90
3944;DHT22;1986;52.546;13.428;2023-04-07T04:21:45;1.90;99.90
3944;DHT22;1986;52.546;13.428;2023-04-07T04:24:11;1.90;99.90
3944;DHT22;1986;52.546;13.428;2023-04-07T04:26:38;1.90;99.90
3944;DHT22;1986;52.546;13.428;2023-04-07T04:29:05;1.90;99.90
3944;DHT22;1986;52.546;13.428;2023-04-07T04:31:32;1.80;99.90
3944;DHT22;1986;52.546;13.428;2023-04-07T04:34:00;1.80;99.90
3944;DHT22;1986;52.546;13.428;2023-04-07T04:36:28;1.80;99.90
3944;DHT22;1986;52.546;13.428;2023-04-07T04:38:55;1.90;99.90
3944;DHT22;1986;52.546;13.428;2023-04-07T04:41:22;1.90;99.90
3944;DHT22;1986;52.546;13.428;2023-04-07T04:43:49;1.90;99.90
3944;DHT22;1986;52.546;13.428;2023-04-07T04:46:16;1.90;99.90
3944;DHT22;1986;52.546;13.428;2023-04-07T04:48:43;1.80;99.90
3944;DHT22;1986;52.546;13.428;2023-04-07T04:51:10;1.80;99.90
3944;DHT22;1986;52.546;13.428;2023-04-07T04:53:38;1.80;99.90
3944;DHT22;1986;52.546;13.428;2023-04-07T04:56:06;1.80;99.90
3944;DHT22;1986;52.546;13.428;2023-04-07T04:58:33;1.80;99.90
3944;DHT22;1986;52.546;13.428;2023-04-07T05:01:00;1.80;99.90
3944;DHT22;1986;52.546;13.428;2023-04-07T05:03:27;1.70;99.90
3944;DHT22;1986;52.546;13.428;2023-04-07T05:05:54;1.80;99.90
3944;DHT22;1986;52.546;13.428;2023-04-07T05:08:21;1.80;99.90
3944;DHT22;1986;52.546;13.428;2023-04-07T05:10:49;1.80;99.90
3944;DHT22;1986;52.546;13.428;2023-04-07T05:13:16;1.80;99.90
3944;DHT22;1986;52.546;13.428;2023-04-07T05:15:43;1.80;99.90
3944;DHT22;1986;52.546;13.428;2023-04-07T05:18:10;1.90;99.90
3944;DHT22;1986;52.546;13.428;2023-04-07T05:20:37;1.90;99.90
3944;DHT22;1986;52.546;13.428;2023-04-07T05:23:05;2.00;99.90
3944;DHT22;1986;52.546;13.428;2023-04-07T05:25:32;2.10;99.90
3944;DHT22;1986;52.546;13.428;2023-04-07T05:28:00;2.10;99.90
3944;DHT22;1986;52.546;13.428;2023-04-07T05:30:27;2.30;99.90
3944;DHT22;1986;52.546;13.428;2023-04-07T05:32:54;2.30;99.90
3944;DHT22;1986;52.546;13.428;2023-04-07T05:35:21;2.40;99.90
3944;DHT22;1986;52.546;13.428;2023-04-07T05:37:48;2.40;99.90
3944;DHT22;1986;52.546;13.428;2023-04-07T05:40:15;2.30;99.90
3944;DHT22;1986;52.546;13.428;2023-04-07T05:42:42;2.40;99.90
3944;DHT22;1986;52.546;13.428;2023-04-07T05:45:11;2.40;99.90
3944;DHT22;1986;52.546;13.428;2023-04-07T05:47:38;2.50;99.90
3944;DHT22;1986;52.546;13.428;2023-04-07T05:50:06;2.50;99.90
3944;DHT22;1986;52.546;13.428;2023-04-07T05:52:33;2.50;99.90
3944;DHT22;1986;52.546;13.428;2023-04-07T05:55:00;2.60;99.90
3944;DHT22;1986;52.546;13.428;2023-04-07T05:57:27;2.60;99.90
3944;DHT22;1986;52.546;13.428;2023-04-07T05:59:54;2.60;99.90
3944;DHT22;1986;52.546;13.428;2023-04-07T06:02:23;2.50;99.90
3944;DHT22;1986;52.546;13.428;2023-04-07T06:04:50;2.60;99.90
3944;DHT22;1986;52.546;13.428;2023-04-07T06:07:16;2.60;99.90
3944;DHT22;1986;52.546;13.428;2023-04-07T06:09:43;2.70;99.90
3944;DHT22;1986;52.546;13.428;2023-04-07T06:12:11;2.60;99.90
3944;DHT22;1986;52.546;13.428;2023-04-07T06:14:38;2.60;99.90
3944;DHT22;1986;52.546;13.428;2023-04-07T06:17:05;2.80;99.90
3944;DHT22;1986;52.546;13.428;2023-04-07T06:19:33;2.90;99.90
3944;DHT22;1986;52.546;13.428;2023-04-07T06:22:01;2.80;99.90
3944;DHT22;1986;52.546;13.428;2023-04-07T06:24:28;2.90;99.90
3944;DHT22;1986;52.546;13.428;2023-04-07T06:26:55;3.00;99.90
3944;DHT22;1986;52.546;13.428;2023-04-07T06:29:22;3.00;99.90
3944;DHT22;1986;52.546;13.428;2023-04-07T06:31:51;3.00;99.90
3944;DHT22;1986;52.546;13.428;2023-04-07T06:34:18;3.10;99.90
3944;DHT22;1986;52.546;13.428;2023-04-07T06:36:46;3.20;99.90
3944;DHT22;1986;52.546;13.428;2023-04-07T06:39:13;3.30;99.90
3944;DHT22;1986;52.546;13.428;2023-04-07T06:41:40;3.30;99.90
3944;DHT22;1986;52.546;13.428;2023-04-07T06:44:09;3.30;99.90
3944;DHT22;1986;52.546;13.428;2023-04-07T06:46:36;3.50;99.90
3944;DHT22;1986;52.546;13.428;2023-04-07T06:49:03;3.50;99.90
3944;DHT22;1986;52.546;13.428;2023-04-07T06:51:30;3.60;99.90
3944;DHT22;1986;52.546;13.428;2023-04-07T06:53:59;3.60;99.90
3944;DHT22;1986;52.546;13.428;2023-04-07T06:56:26;3.60;99.90
3944;DHT22;1986;52.546;13.428;2023-04-07T06:58:53;3.70;99.90
3944;DHT22;1986;52.546;13.428;2023-04-07T07:01:20;3.90;99.90
3944;DHT22;1986;52.546;13.428;2023-04-07T07:03:46;3.90;99.90
3944;DHT22;1986;52.546;13.428;2023-04-07T07:06:13;3.90;99.90
3944;DHT22;1986;52.546;13.428;2023-04-07T07:08:40;3.90;99.90
3944;DHT22;1986;52.546;13.428;2023-04-07T07:11:09;3.90;99.90
3944;DHT22;1986;52.546;13.428;2023-04-07T07:13:36;4.00;99.90
3944;DHT22;1986;52.546;13.428;2023-04-07T07:16:03;4.00;99.90
3944;DHT22;1986;52.546;13.428;2023-04-07T07:18:31;4.00;99.90
3944;DHT22;1986;52.546;13.428;2023-04-07T07:20:58;4.20;99.90
3944;DHT22;1986;52.546;13.428;2023-04-07T07:23:24;4.30;99.90
3944;DHT22;1986;52.546;13.428;2023-04-07T07:25:51;4.40;99.90
3944;DHT22;1986;52.546;13.428;2023-04-07T07:28:20;4.50;99.90
3944;DHT22;1986;52.546;13.428;2023-04-07T07:30:48;4.50;99.90
3944;DHT22;1986;52.546;13.428;2023-04-07T07:33:15;4.60;99.90
3944;DHT22;1986;52.546;13.428;2023-04-07T07:35:42;4.70;99.90
3944;DHT22;1986;52.546;13.428;2023-04-07T07:38:10;4.80;99.90
3944;DHT22;1986;52.546;13.428;2023-04-07T07:40:37;4.70;99.90
3944;DHT22;1986;52.546;13.428;2023-04-07T07:43:04;4.70;99.90
3944;DHT22;1986;52.546;13.428;2023-04-07T07:45:33;4.70;99.90
3944;DHT22;1986;52.546;13.428;2023-04-07T07:47:59;4.90;99.90
3944;DHT22;1986;52.546;13.428;2023-04-07T07:50:26;4.80;99.90
3944;DHT22;1986;52.546;13.428;2023-04-07T07:52:53;4.80;99.90
3944;DHT22;1986;52.546;13.428;2023-04-07T07:55:21;4.80;99.90
3944;DHT22;1986;52.546;13.428;2023-04-07T07:57:48;4.80;99.90
3944;DHT22;1986;52.546;13.428;2023-04-07T08:00:15;4.90;99.90
3944;DHT22;1986;52.546;13.428;2023-04-07T08:02:44;5.00;99.90
3944;DHT22;1986;52.546;13.428;2023-04-07T08:05:11;4.90;99.90
3944;DHT22;1986;52.546;13.428;2023-04-07T08:07:38;5.10;99.90
3944;DHT22;1986;52.546;13.428;2023-04-07T08:10:05;5.30;99.90
3944;DHT22;1986;52.546;13.428;2023-04-07T08:12:32;5.30;99.90
3944;DHT22;1986;52.546;13.428;2023-04-07T08:14:59;5.40;99.90
3944;DHT22;1986;52.546;13.428;2023-04-07T08:17:27;5.40;99.90
3944;DHT22;1986;52.546;13.428;2023-04-07T08:19:55;5.50;99.80
3944;DHT22;1986;52.546;13.428;2023-04-07T08:22:22;5.40;98.40
3944;DHT22;1986;52.546;13.428;2023-04-07T08:24:49;5.40;98.30
3944;DHT22;1986;52.546;13.428;2023-04-07T08:27:16;5.60;96.60
3944;DHT22;1986;52.546;13.428;2023-04-07T08:29:43;5.70;95.90
3944;DHT22;1986;52.546;13.428;2023-04-07T08:32:10;5.60;95.90
3944;DHT22;1986;52.546;13.428;2023-04-07T08:34:40;5.60;96.70
3944;DHT22;1986;52.546;13.428;2023-04-07T08:37:08;5.70;96.40
3944;DHT22;1986;52.546;13.428;2023-04-07T08:39:35;5.50;95.90
3944;DHT22;1986;52.546;13.428;2023-04-07T08:42:02;5.50;96.30
3944;DHT22;1986;52.546;13.428;2023-04-07T08:44:29;5.60;96.50
3944;DHT22;1986;52.546;13.428;2023-04-07T08:46:58;5.70;96.70
3944;DHT22;1986;52.546;13.428;2023-04-07T08:49:27;5.80;96.50
3944;DHT22;1986;52.546;13.428;2023-04-07T08:51:55;5.90;95.20
3944;DHT22;1986;52.546;13.428;2023-04-07T08:54:28;6.20;94.00
3944;DHT22;1986;52.546;13.428;2023-04-07T08:56:55;6.50;92.50
3944;DHT22;1986;52.546;13.428;2023-04-07T08:59:22;6.70;90.60
3944;DHT22;1986;52.546;13.428;2023-04-07T09:01:54;6.60;86.20
3944;DHT22;1986;52.546;13.428;2023-04-07T09:04:21;5.90;84.00
3944;DHT22;1986;52.546;13.428;2023-04-07T09:06:49;5.70;84.40
3944;DHT22;1986;52.546;13.428;2023-04-07T09:09:16;5.90;85.20
3944;DHT22;1986;52.546;13.428;2023-04-07T09:11:44;5.90;83.40
3944;DHT22;1986;52.546;13.428;2023-04-07T09:14:13;5.80;81.90
3944;DHT22;1986;52.546;13.428;2023-04-07T09:16:41;5.80;81.50
3944;DHT22;1986;52.546;13.428;2023-04-07T09:19:08;5.60;82.30
3944;DHT22;1986;52.546;13.428;2023-04-07T09:21:47;5.50;84.00
3944;DHT22;1986;52.546;13.428;2023-04-07T09:24:22;5.40;85.00
3944;DHT22;1986;52.546;13.428;2023-04-07T09:26:51;5.30;87.40
3944;DHT22;1986;52.546;13.428;2023-04-07T09:29:23;5.30;88.80
3944;DHT22;1986;52.546;13.428;2023-04-07T09:31:50;5.40;88.80
3944;DHT22;1986;52.546;13.428;2023-04-07T09:34:24;5.20;89.40
3944;DHT22;1986;52.546;13.428;2023-04-07T09:36:52;5.20;90.60
3944;DHT22;1986;52.546;13.428;2023-04-07T09:39:19;5.20;91.30
3944;DHT22;1986;52.546;13.428;2023-04-07T09:41:46;5.20;91.60
3944;DHT22;1986;52.546;13.428;2023-04-07T09:44:15;5.30;92.40
3944;DHT22;1986;52.546;13.428;2023-04-07T09:46:49;5.20;91.90
3944;DHT22;1986;52.546;13.428;2023-04-07T09:49:16;5.10;92.40
3944;DHT22;1986;52.546;13.428;2023-04-07T09:51:55;5.10;92.70
3944;DHT22;1986;52.546;13.428;2023-04-07T09:54:32;5.20;93.10
3944;DHT22;1986;52.546;13.428;2023-04-07T09:57:01;5.20;93.10
3944;DHT22;1986;52.546;13.428;2023-04-07T09:59:30;5.20;93.90
3944;DHT22;1986;52.546;13.428;2023-04-07T10:01:58;5.30;94.60
3944;DHT22;1986;52.546;13.428;2023-04-07T10:04:26;5.50;94.80
3944;DHT22;1986;52.546;13.428;2023-04-07T10:06:54;5.60;94.50
3944;DHT22;1986;52.546;13.428;2023-04-07T10:09:22;5.60;94.30
3944;DHT22;1986;52.546;13.428;2023-04-07T10:11:50;5.40;94.70
3944;DHT22;1986;52.546;13.428;2023-04-07T10:14:18;5.40;95.30
3944;DHT22;1986;52.546;13.428;2023-04-07T10:16:47;5.60;96.20
3944;DHT22;1986;52.546;13.428;2023-04-07T10:19:18;5.70;96.70
3944;DHT22;1986;52.546;13.428;2023-04-07T10:21:47;5.60;96.10
3944;DHT22;1986;52.546;13.428;2023-04-07T10:24:27;5.50;96.80
3944;DHT22;1986;52.546;13.428;2023-04-07T10:26:59;5.60;97.50
3944;DHT22;1986;52.546;13.428;2023-04-07T10:29:28;5.60;97.60
3944;DHT22;1986;52.546;13.428;2023-04-07T10:32:00;5.60;98.40
3944;DHT22;1986;52.546;13.428;2023-04-07T10:34:59;5.40;99.40
3944;DHT22;1986;52.546;13.428;2023-04-07T10:37:26;5.40;99.90
3944;DHT22;1986;52.546;13.428;2023-04-07T10:40:27;5.40;99.90
3944;DHT22;1986;52.546;13.428;2023-04-07T10:42:54;5.50;99.90
3944;DHT22;1986;52.546;13.428;2023-04-07T10:45:55;5.80;99.90
3944;DHT22;1986;52.546;13.428;2023-04-07T10:48:26;5.60;99.90
3944;DHT22;1986;52.546;13.428;2023-04-07T10:51:12;5.40;99.90
3944;DHT22;1986;52.546;13.428;2023-04-07T10:57:10;5.10;99.90
3944;DHT22;1986;52.546;13.428;2023-04-07T10:59:39;4.80;99.90
3944;DHT22;1986;52.546;13.428;2023-04-07T11:02:32;4.80;99.90
3944;DHT22;1986;52.546;13.428;2023-04-07T11:05:01;5.10;99.90
3944;DHT22;1986;52.546;13.428;2023-04-07T11:07:47;5.20;99.90
3944;DHT22;1986;52.546;13.428;2023-04-07T11:10:15;5.20;99.90
3944;DHT22;1986;52.546;13.428;2023-04-07T11:12:43;5.00;99.90
3944;DHT22;1986;52.546;13.428;2023-04-07T11:15:18;4.90;99.90
3944;DHT22;1986;52.546;13.428;2023-04-07T11:17:46;5.00;99.90
3944;DHT22;1986;52.546;13.428;2023-04-07T11:20:16;4.90;99.90
3944;DHT22;1986;52.546;13.428;2023-04-07T11:22:58;4.90;99.90
3944;DHT22;1986;52.546;13.428;2023-04-07T11:25:25;4.90;99.90
3944;DHT22;1986;52.546;13.428;2023-04-07T11:27:55;4.90;99.90
3944;DHT22;1986;52.546;13.428;2023-04-07T11:30:27;4.90;99.90
3944;DHT22;1986;52.546;13.428;2023-04-07T11:32:55;5.10;99.90
3944;DHT22;1986;52.546;13.428;2023-04-07T11:35:26;5.10;99.90
3944;DHT22;1986;52.546;13.428;2023-04-07T11:37:57;4.90;99.90
3944;DHT22;1986;52.546;13.428;2023-04-07T11:40:31;4.90;99.90
3944;DHT22;1986;52.546;13.428;2023-04-07T11:42:59;5.00;99.90
3944;DHT22;1986;52.546;13.428;2023-04-07T11:45:27;5.10;99.90
3944;DHT22;1986;52.546;13.428;2023-04-07T11:47:54;4.90;99.90
3944;DHT22;1986;52.546;13.428;2023-04-07T11:50:40;4.70;99.90
3944;DHT22;1986;52.546;13.428;2023-04-07T11:53:08;4.80;99.90
3944;DHT22;1986;52.546;13.428;2023-04-07T11:55:37;4.80;99.90
3944;DHT22;1986;52.546;13.428;2023-04-07T11:58:05;4.90;99.90
3944;DHT22;1986;52.546;13.428;2023-04-07T12:00:34;4.80;99.90
3944;DHT22;1986;52.546;13.428;2023-04-07T12:03:12;4.80;99.90
3944;DHT22;1986;52.546;13.428;2023-04-07T12:05:44;4.80;99.90
3944;DHT22;1986;52.546;13.428;2023-04-07T12:08:13;4.90;99.90
3944;DHT22;1986;52.546;13.428;2023-04-07T12:10:40;5.00;99.90
3944;DHT22;1986;52.546;13.428;2023-04-07T12:13:07;5.20;99.90
3944;DHT22;1986;52.546;13.428;2023-04-07T12:15:34;5.30;99.90
3944;DHT22;1986;52.546;13.428;2023-04-07T12:18:06;5.40;99.90
3944;DHT22;1986;52.546;13.428;2023-04-07T12:20:33;5.50;99.90
3944;DHT22;1986;52.546;13.428;2023-04-07T12:23:01;5.50;99.90
3944;DHT22;1986;52.546;13.428;2023-04-07T12:25:28;5.50;99.90
3944;DHT22;1986;52.546;13.428;2023-04-07T12:27:55;5.50;99.90
3944;DHT22;1986;52.546;13.428;2023-04-07T12:30:22;5.60;99.90
3944;DHT22;1986;52.546;13.428;2023-04-07T12:32:49;5.30;99.90
3944;DHT22;1986;52.546;13.428;2023-04-07T12:35:16;5.30;99.90
3944;DHT22;1986;52.546;13.428;2023-04-07T12:37:43;5.10;99.90
3944;DHT22;1986;52.546;13.428;2023-04-07T12:40:13;5.00;99.90
3944;DHT22;1986;52.546;13.428;2023-04-07T12:42:41;5.10;99.90
3944;DHT22;1986;52.546;13.428;2023-04-07T12:45:09;5.40;99.90
3944;DHT22;1986;52.546;13.428;2023-04-07T12:47:36;5.50;99.90
3944;DHT22;1986;52.546;13.428;2023-04-07T12:50:04;5.60;99.90
3944;DHT22;1986;52.546;13.428;2023-04-07T12:52:31;5.60;99.90
3944;DHT22;1986;52.546;13.428;2023-04-07T12:54:58;5.50;99.90
3944;DHT22;1986;52.546;13.428;2023-04-07T12:57:28;5.20;99.90
3944;DHT22;1986;52.546;13.428;2023-04-07T12:59:56;5.20;99.90
3944;DHT22;1986;52.546;13.428;2023-04-07T13:02:22;5.20;99.90
3944;DHT22;1986;52.546;13.428;2023-04-07T13:04:50;5.30;99.90
3944;DHT22;1986;52.546;13.428;2023-04-07T13:07:19;5.30;99.90
3944;DHT22;1986;52.546;13.428;2023-04-07T13:09:47;5.20;99.90
3944;DHT22;1986;52.546;13.428;2023-04-07T13:12:14;5.20;99.90
3944;DHT22;1986;52.546;13.428;2023-04-07T13:14:44;5.30;99.90
3944;DHT22;1986;52.546;13.428;2023-04-07T13:17:12;5.50;99.90
3944;DHT22;1986;52.546;13.428;2023-04-07T13:19:40;5.60;99.90
3944;DHT22;1986;52.546;13.428;2023-04-07T13:22:07;5.70;99.90
3944;DHT22;1986;52.546;13.428;2023-04-07T13:24:34;5.70;99.90
3944;DHT22;1986;52.546;13.428;2023-04-07T13:27:01;5.50;99.90
3944;DHT22;1986;52.546;13.428;2023-04-07T13:29:29;5.40;99.90
3944;DHT22;1986;52.546;13.428;2023-04-07T13:32:05;5.50;99.90
3944;DHT22;1986;52.546;13.428;2023-04-07T13:34:32;5.70;99.90
3944;DHT22;1986;52.546;13.428;2023-04-07T13:37:00;5.70;99.90
3944;DHT22;1986;52.546;13.428;2023-04-07T13:39:27;5.70;99.90
3944;DHT22;1986;52.546;13.428;2023-04-07T13:41:54;5.70;99.90
3944;DHT22;1986;52.546;13.428;2023-04-07T13:44:26;5.70;99.90
3944;DHT22;1986;52.546;13.428;2023-04-07T13:46:54;5.60;99.90
3944;DHT22;1986;52.546;13.428;2023-04-07T13:49:26;5.50;99.90
3944;DHT22;1986;52.546;13.428;2023-04-07T13:51:53;5.40;99.90
3944;DHT22;1986;52.546;13.428;2023-04-07T13:54:26;5.50;99.90
3944;DHT22;1986;52.546;13.428;2023-04-07T13:56:55;5.50;99.90
3944;DHT22;1986;52.546;13.428;2023-04-07T13:59:23;5.60;99.90
3944;DHT22;1986;52.546;13.428;2023-04-07T14:01:50;5.60;99.90
3944;DHT22;1986;52.546;13.428;2023-04-07T14:04:16;5.80;99.90
3944;DHT22;1986;52.546;13.428;2023-04-07T14:06:46;6.00;99.90
3944;DHT22;1986;52.546;13.428;2023-04-07T14:09:13;6.00;99.90
3944;DHT22;1986;52.546;13.428;2023-04-07T14:11:40;6.10;99.90
3944;DHT22;1986;52.546;13.428;2023-04-07T14:14:07;6.10;99.90
3944;DHT22;1986;52.546;13.428;2023-04-07T14:16:34;6.10;99.90
3944;DHT22;1986;52.546;13.428;2023-04-07T14:19:02;6.10;99.90
3944;DHT22;1986;52.546;13.428;2023-04-07T14:21:31;6.10;99.90
3944;DHT22;1986;52.546;13.428;2023-04-07T14:24:00;6.20;99.90
3944;DHT22;1986;52.546;13.428;2023-04-07T14:26:27;6.00;99.90
3944;DHT22;1986;52.546;13.428;2023-04-07T14:28:54;6.00;99.90
3944;DHT22;1986;52.546;13.428;2023-04-07T14:31:21;6.00;99.90
3944;DHT22;1986;52.546;13.428;2023-04-07T14:33:48;6.10;99.90
3944;DHT22;1986;52.546;13.428;2023-04-07T14:36:15;6.10;99.90
3944;DHT22;1986;52.546;13.428;2023-04-07T14:38:42;6.20;99.90
3944;DHT22;1986;52.546;13.428;2023-04-07T14:41:11;6.30;99.90
3944;DHT22;1986;52.546;13.428;2023-04-07T14:43:38;6.30;99.90
3944;DHT22;1986;52.546;13.428;2023-04-07T14:46:06;6.30;99.90
3944;DHT22;1986;52.546;13.428;2023-04-07T14:48:33;6.30;99.90
3944;DHT22;1986;52.546;13.428;2023-04-07T14:51:01;6.30;99.90
3944;DHT22;1986;52.546;13.428;2023-04-07T14:53:31;6.30;99.90
3944;DHT22;1986;52.546;13.428;2023-04-07T14:55:58;6.20;99.90
3944;DHT22;1986;52.546;13.428;2023-04-07T14:58:30;6.20;99.90
3944;DHT22;1986;52.546;13.428;2023-04-07T15:00:57;6.30;99.90
3944;DHT22;1986;52.546;13.428;2023-04-07T15:03:24;6.30;99.90
3944;DHT22;1986;52.546;13.428;2023-04-07T15:05:51;6.30;99.90
3944;DHT22;1986;52.546;13.428;2023-04-07T15:08:19;6.30;99.90
3944;DHT22;1986;52.546;13.428;2023-04-07T15:10:49;6.20;99.90
3944;DHT22;1986;52.546;13.428;2023-04-07T15:13:16;6.30;99.90
3944;DHT22;1986;52.546;13.428;2023-04-07T15:15:47;6.20;99.90
3944;DHT22;1986;52.546;13.428;2023-04-07T15:18:15;6.20;99.90
3944;DHT22;1986;52.546;13.428;2023-04-07T15:20:42;6.20;99.90
3944;DHT22;1986;52.546;13.428;2023-04-07T15:23:12;6.00;99.90
3944;DHT22;1986;52.546;13.428;2023-04-07T15:25:40;5.90;99.90
3944;DHT22;1986;52.546;13.428;2023-04-07T15:28:07;5.70;99.90
3944;DHT22;1986;52.546;13.428;2023-04-07T15:30:36;5.70;99.90
3944;DHT22;1986;52.546;13.428;2023-04-07T15:33:04;5.60;99.90
3944;DHT22;1986;52.546;13.428;2023-04-07T15:35:31;5.70;99.90
3944;DHT22;1986;52.546;13.428;2023-04-07T15:38:00;5.80;99.90
3944;DHT22;1986;52.546;13.428;2023-04-07T15:40:27;5.90;99.90
3944;DHT22;1986;52.546;13.428;2023-04-07T15:42:55;6.00;99.90
3944;DHT22;1986;52.546;13.428;2023-04-07T15:45:22;6.00;99.90
3944;DHT22;1986;52.546;13.428;2023-04-07T15:47:51;6.00;99.90
3944;DHT22;1986;52.546;13.428;2023-04-07T15:50:20;5.80;99.90
3944;DHT22;1986;52.546;13.428;2023-04-07T15:52:49;5.80;99.90
3944;DHT22;1986;52.546;13.428;2023-04-07T15:55:18;5.80;99.90
3944;DHT22;1986;52.546;13.428;2023-04-07T15:57:47;5.80;99.90
3944;DHT22;1986;52.546;13.428;2023-04-07T16:00:15;5.80;99.90
3944;DHT22;1986;52.546;13.428;2023-04-07T16:02:50;5.90;99.90
3944;DHT22;1986;52.546;13.428;2023-04-07T16:05:20;6.00;99.90
3944;DHT22;1986;52.546;13.428;2023-04-07T16:07:48;6.00;99.90
3944;DHT22;1986;52.546;13.428;2023-04-07T16:10:17;6.00;99.90
3944;DHT22;1986;52.546;13.428;2023-04-07T16:12:46;5.90;99.90
3944;DHT22;1986;52.546;13.428;2023-04-07T16:15:16;5.80;99.90